sensor_id;sensor_type;location;lat;lon;timestamp;P1;durP1;ratioP1;P2;durP2;ratioP2
19312;SDS011;9791;50.820;4.406;2023-07-22T00:01:21;11.23;;;6.80;;
19312;SDS011;9791;50.820;4.406;2023-07-22T00:03:47;9.77;;;7.00;;
19312;SDS011;9791;50.820;4.406;2023-07-22T00:06:13;9.05;;;6.38;;
19312;SDS011;9791;50.820;4.406;2023-07-22T00:08:40;11.77;;;7.32;;
19312;SDS011;9791;50.820;4.406;2023-07-22T00:11:06;11.02;;;7.22;;
19312;SDS011;9791;50.820;4.406;2023-07-22T00:13:33;12.52;;;7.15;;
19312;SDS011;9791;50.820;4.406;2023-07-22T00:15:59;11.90;;;6.63;;
19312;SDS011;9791;50.820;4.406;2023-07-22T00:18:29;11.55;;;7.20;;
19312;SDS011;9791;50.820;4.406;2023-07-22T00:20:56;10.32;;;7.15;;
19312;SDS011;9791;50.820;4.406;2023-07-22T00:23:22;11.93;;;7.05;;
19312;SDS011;9791;50.820;4.406;2023-07-22T00:25:48;13.38;;;7.10;;
19312;SDS011;9791;50.820;4.406;2023-07-22T00:28:14;11.20;;;7.53;;
19312;SDS011;9791;50.820;4.406;2023-07-22T00:30:41;12.45;;;7.15;;
19312;SDS011;9791;50.820;4.406;2023-07-22T00:33:07;14.48;;;8.18;;
19312;SDS011;9791;50.820;4.406;2023-07-22T00:35:33;10.32;;;6.57;;
19312;SDS011;9791;50.820;4.406;2023-07-22T00:38:00;11.63;;;7.00;;
19312;SDS011;9791;50.820;4.406;2023-07-22T00:40:26;11.75;;;7.25;;
19312;SDS011;9791;50.820;4.406;2023-07-22T00:42:52;13.30;;;7.50;;
19312;SDS011;9791;50.820;4.406;2023-07-22T00:45:18;12.90;;;7.05;;
19312;SDS011;9791;50.820;4.406;2023-07-22T00:47:44;13.25;;;7.03;;
19312;SDS011;9791;50.820;4.406;2023-07-22T00:50:11;11.00;;;7.07;;
19312;SDS011;9791;50.820;4.406;2023-07-22T00:52:37;11.00;;;6.93;;
19312;SDS011;9791;50.820;4.406;2023-07-22T00:55:06;13.10;;;6.70;;
19312;SDS011;9791;50.820;4.406;2023-07-22T00:57:33;11.88;;;7.32;;
19312;SDS011;9791;50.820;4.406;2023-07-22T00:59:59;11.02;;;7.28;;
19312;SDS011;9791;50.820;4.406;2023-07-22T01:02:25;13.88;;;7.95;;
19312;SDS011;9791;50.820;4.406;2023-07-22T01:04:51;12.60;;;6.97;;
19312;SDS011;9791;50.820;4.406;2023-07-22T01:07:17;13.13;;;7.30;;
19312;SDS011;9791;50.820;4.406;2023-07-22T01:09:44;11.82;;;7.28;;
19312;SDS011;9791;50.820;4.406;2023-07-22T01:12:10;11.82;;;7.43;;
19312;SDS011;9791;50.820;4.406;2023-07-22T01:14:38;11.60;;;6.95;;
19312;SDS011;9791;50.820;4.406;2023-07-22T01:17:05;11.45;;;7.07;;
19312;SDS011;9791;50.820;4.406;2023-07-22T01:19:31;12.77;;;7.20;;
19312;SDS011;9791;50.820;4.406;2023-07-22T01:22:01;12.52;;;7.28;;
19312;SDS011;9791;50.820;4.406;2023-07-22T01:24:31;11.05;;;7.10;;
19312;SDS011;9791;50.820;4.406;2023-07-22T01:26:57;15.73;;;8.25;;
19312;SDS011;9791;50.820;4.406;2023-07-22T01:29:23;13.98;;;7.47;;
19312;SDS011;9791;50.820;4.406;2023-07-22T01:31:50;13.15;;;8.07;;
19312;SDS011;9791;50.820;4.406;2023-07-22T01:34:17;12.57;;;7.32;;
19312;SDS011;9791;50.820;4.406;2023-07-22T01:36:44;12.30;;;7.25;;
19312;SDS011;9791;50.820;4.406;2023-07-22T01:39:11;10.27;;;6.80;;
19312;SDS011;9791;50.820;4.406;2023-07-22T01:41:37;13.30;;;8.27;;
19312;SDS011;9791;50.820;4.406;2023-07-22T01:44:03;14.07;;;7.82;;
19312;SDS011;9791;50.820;4.406;2023-07-22T01:46:30;14.65;;;8.20;;
19312;SDS011;9791;50.820;4.406;2023-07-22T01:48:56;10.35;;;7.07;;
19312;SDS011;9791;50.820;4.406;2023-07-22T01:51:22;11.55;;;7.70;;
19312;SDS011;9791;50.820;4.406;2023-07-22T01:53:48;11.63;;;7.95;;
19312;SDS011;9791;50.820;4.406;2023-07-22T01:56:14;12.15;;;8.05;;
19312;SDS011;9791;50.820;4.406;2023-07-22T01:58:41;12.98;;;8.35;;
19312;SDS011;9791;50.820;4.406;2023-07-22T02:01:07;15.13;;;7.93;;
19312;SDS011;9791;50.820;4.406;2023-07-22T02:03:34;15.00;;;8.07;;
19312;SDS011;9791;50.820;4.406;2023-07-22T02:06:03;13.23;;;7.65;;
19312;SDS011;9791;50.820;4.406;2023-07-22T02:08:30;13.25;;;8.45;;
19312;SDS011;9791;50.820;4.406;2023-07-22T02:11:02;18.60;;;8.32;;
19312;SDS011;9791;50.820;4.406;2023-07-22T02:13:29;15.02;;;7.95;;
19312;SDS011;9791;50.820;4.406;2023-07-22T02:15:55;16.75;;;8.90;;
19312;SDS011;9791;50.820;4.406;2023-07-22T02:18:21;14.60;;;8.40;;
19312;SDS011;9791;50.820;4.406;2023-07-22T02:20:47;13.35;;;7.85;;
19312;SDS011;9791;50.820;4.406;2023-07-22T02:23:13;13.40;;;8.00;;
19312;SDS011;9791;50.820;4.406;2023-07-22T02:25:40;13.40;;;8.13;;
19312;SDS011;9791;50.820;4.406;2023-07-22T02:28:06;12.18;;;7.78;;
19312;SDS011;9791;50.820;4.406;2023-07-22T02:30:36;16.50;;;8.43;;
19312;SDS011;9791;50.820;4.406;2023-07-22T02:33:02;15.55;;;8.43;;
19312;SDS011;9791;50.820;4.406;2023-07-22T02:35:28;15.32;;;8.18;;
19312;SDS011;9791;50.820;4.406;2023-07-22T02:37:54;13.18;;;8.70;;
19312;SDS011;9791;50.820;4.406;2023-07-22T02:40:20;19.05;;;9.93;;
19312;SDS011;9791;50.820;4.406;2023-07-22T02:42:46;18.25;;;9.13;;
19312;SDS011;9791;50.820;4.406;2023-07-22T02:45:12;16.25;;;8.85;;
19312;SDS011;9791;50.820;4.406;2023-07-22T02:47:38;17.33;;;10.18;;
19312;SDS011;9791;50.820;4.406;2023-07-22T02:50:09;14.02;;;9.50;;
19312;SDS011;9791;50.820;4.406;2023-07-22T02:52:36;16.58;;;9.10;;
19312;SDS011;9791;50.820;4.406;2023-07-22T02:57:31;14.45;;;8.70;;
19312;SDS011;9791;50.820;4.406;2023-07-22T02:59:57;15.98;;;9.45;;
19312;SDS011;9791;50.820;4.406;2023-07-22T03:02:23;17.05;;;9.07;;
19312;SDS011;9791;50.820;4.406;2023-07-22T03:04:49;19.08;;;9.95;;
19312;SDS011;9791;50.820;4.406;2023-07-22T03:07:15;13.88;;;9.40;;
19312;SDS011;9791;50.820;4.406;2023-07-22T03:09:41;16.85;;;10.13;;
19312;SDS011;9791;50.820;4.406;2023-07-22T03:12:07;18.50;;;9.38;;
19312;SDS011;9791;50.820;4.406;2023-07-22T03:14:33;16.25;;;9.77;;
19312;SDS011;9791;50.820;4.406;2023-07-22T03:17:01;15.23;;;9.40;;
19312;SDS011;9791;50.820;4.406;2023-07-22T03:19:29;16.20;;;9.65;;
19312;SDS011;9791;50.820;4.406;2023-07-22T03:21:55;15.48;;;9.88;;
19312;SDS011;9791;50.820;4.406;2023-07-22T03:24:21;18.80;;;10.48;;
19312;SDS011;9791;50.820;4.406;2023-07-22T03:26:47;20.02;;;10.98;;
19312;SDS011;9791;50.820;4.406;2023-07-22T03:29:13;19.95;;;10.50;;
19312;SDS011;9791;50.820;4.406;2023-07-22T03:31:39;15.77;;;10.27;;
19312;SDS011;9791;50.820;4.406;2023-07-22T03:34:05;20.27;;;10.88;;
19312;SDS011;9791;50.820;4.406;2023-07-22T03:36:31;17.58;;;9.93;;
19312;SDS011;9791;50.820;4.406;2023-07-22T03:39:00;18.05;;;10.55;;
19312;SDS011;9791;50.820;4.406;2023-07-22T03:41:27;17.98;;;9.80;;
19312;SDS011;9791;50.820;4.406;2023-07-22T03:43:53;16.67;;;9.65;;
19312;SDS011;9791;50.820;4.406;2023-07-22T03:46:19;17.88;;;9.93;;
19312;SDS011;9791;50.820;4.406;2023-07-22T03:48:45;17.60;;;10.35;;
19312;SDS011;9791;50.820;4.406;2023-07-22T03:51:11;16.42;;;9.45;;
19312;SDS011;9791;50.820;4.406;2023-07-22T03:53:38;17.75;;;9.85;;
19312;SDS011;9791;50.820;4.406;2023-07-22T03:56:04;16.88;;;9.88;;
19312;SDS011;9791;50.820;4.406;2023-07-22T03:58:30;18.38;;;9.18;;
19312;SDS011;9791;50.820;4.406;2023-07-22T04:00:56;15.32;;;9.43;;
19312;SDS011;9791;50.820;4.406;2023-07-22T04:03:22;20.63;;;10.05;;
19312;SDS011;9791;50.820;4.406;2023-07-22T04:05:54;16.40;;;10.30;;
19312;SDS011;9791;50.820;4.406;2023-07-22T04:08:21;19.45;;;9.32;;
19312;SDS011;9791;50.820;4.406;2023-07-22T04:10:53;15.98;;;8.93;;
19312;SDS011;9791;50.820;4.406;2023-07-22T04:13:20;18.75;;;10.30;;
19312;SDS011;9791;50.820;4.406;2023-07-22T04:15:47;21.67;;;9.63;;
19312;SDS011;9791;50.820;4.406;2023-07-22T04:18:17;18.65;;;9.80;;
19312;SDS011;9791;50.820;4.406;2023-07-22T04:20:43;15.48;;;8.95;;
19312;SDS011;9791;50.820;4.406;2023-07-22T04:23:10;14.43;;;9.45;;
19312;SDS011;9791;50.820;4.406;2023-07-22T04:25:39;17.30;;;9.20;;
19312;SDS011;9791;50.820;4.406;2023-07-22T04:28:06;16.25;;;9.57;;
19312;SDS011;9791;50.820;4.406;2023-07-22T04:30:35;18.77;;;9.18;;
19312;SDS011;9791;50.820;4.406;2023-07-22T04:33:01;16.15;;;9.35;;
19312;SDS011;9791;50.820;4.406;2023-07-22T04:35:30;16.48;;;8.60;;
19312;SDS011;9791;50.820;4.406;2023-07-22T04:37:58;17.40;;;8.82;;
19312;SDS011;9791;50.820;4.406;2023-07-22T04:40:25;15.15;;;8.80;;
19312;SDS011;9791;50.820;4.406;2023-07-22T04:42:51;14.85;;;8.63;;
19312;SDS011;9791;50.820;4.406;2023-07-22T04:45:17;17.70;;;9.43;;
19312;SDS011;9791;50.820;4.406;2023-07-22T04:47:44;22.63;;;9.35;;
19312;SDS011;9791;50.820;4.406;2023-07-22T04:50:12;14.25;;;8.43;;
19312;SDS011;9791;50.820;4.406;2023-07-22T04:52:38;19.35;;;8.85;;
19312;SDS011;9791;50.820;4.406;2023-07-22T04:55:06;17.33;;;9.60;;
19312;SDS011;9791;50.820;4.406;2023-07-22T04:57:40;16.90;;;8.95;;
19312;SDS011;9791;50.820;4.406;2023-07-22T05:00:11;13.43;;;9.05;;
19312;SDS011;9791;50.820;4.406;2023-07-22T05:02:41;17.40;;;9.18;;
19312;SDS011;9791;50.820;4.406;2023-07-22T05:05:09;16.05;;;8.25;;
19312;SDS011;9791;50.820;4.406;2023-07-22T05:07:35;16.13;;;8.93;;
19312;SDS011;9791;50.820;4.406;2023-07-22T05:10:01;14.60;;;7.95;;
19312;SDS011;9791;50.820;4.406;2023-07-22T05:12:27;17.10;;;8.25;;
19312;SDS011;9791;50.820;4.406;2023-07-22T05:14:53;16.88;;;8.75;;
19312;SDS011;9791;50.820;4.406;2023-07-22T05:17:19;16.85;;;8.95;;
19312;SDS011;9791;50.820;4.406;2023-07-22T05:19:45;15.10;;;8.43;;
19312;SDS011;9791;50.820;4.406;2023-07-22T05:22:13;13.48;;;7.78;;
19312;SDS011;9791;50.820;4.406;2023-07-22T05:24:39;15.20;;;7.72;;
19312;SDS011;9791;50.820;4.406;2023-07-22T05:27:05;14.90;;;7.88;;
19312;SDS011;9791;50.820;4.406;2023-07-22T05:29:32;16.05;;;7.70;;
19312;SDS011;9791;50.820;4.406;2023-07-22T05:31:57;15.13;;;7.95;;
19312;SDS011;9791;50.820;4.406;2023-07-22T05:34:23;12.27;;;7.60;;
19312;SDS011;9791;50.820;4.406;2023-07-22T05:36:49;11.70;;;7.00;;
19312;SDS011;9791;50.820;4.406;2023-07-22T05:39:15;12.30;;;6.50;;
19312;SDS011;9791;50.820;4.406;2023-07-22T05:41:43;13.23;;;7.72;;
19312;SDS011;9791;50.820;4.406;2023-07-22T05:44:09;12.60;;;6.43;;
19312;SDS011;9791;50.820;4.406;2023-07-22T05:46:35;11.20;;;6.93;;
19312;SDS011;9791;50.820;4.406;2023-07-22T05:49:03;13.77;;;6.30;;
19312;SDS011;9791;50.820;4.406;2023-07-22T05:51:29;14.65;;;6.55;;
19312;SDS011;9791;50.820;4.406;2023-07-22T05:53:55;10.70;;;6.30;;
19312;SDS011;9791;50.820;4.406;2023-07-22T05:56:22;11.30;;;5.57;;
19312;SDS011;9791;50.820;4.406;2023-07-22T05:58:48;11.10;;;5.60;;
19312;SDS011;9791;50.820;4.406;2023-07-22T06:01:14;10.95;;;5.55;;
19312;SDS011;9791;50.820;4.406;2023-07-22T06:03:40;11.98;;;5.80;;
19312;SDS011;9791;50.820;4.406;2023-07-22T06:06:07;12.38;;;5.72;;
19312;SDS011;9791;50.820;4.406;2023-07-22T06:08:33;10.07;;;5.45;;
19312;SDS011;9791;50.820;4.406;2023-07-22T06:10:59;12.88;;;5.68;;
19312;SDS011;9791;50.820;4.406;2023-07-22T06:13:25;9.30;;;4.95;;
19312;SDS011;9791;50.820;4.406;2023-07-22T06:15:52;12.85;;;5.80;;
19312;SDS011;9791;50.820;4.406;2023-07-22T06:18:18;10.88;;;5.22;;
19312;SDS011;9791;50.820;4.406;2023-07-22T06:20:44;12.25;;;5.72;;
19312;SDS011;9791;50.820;4.406;2023-07-22T06:23:10;11.75;;;5.13;;
19312;SDS011;9791;50.820;4.406;2023-07-22T06:25:36;11.65;;;5.00;;
19312;SDS011;9791;50.820;4.406;2023-07-22T06:28:02;10.43;;;5.07;;
19312;SDS011;9791;50.820;4.406;2023-07-22T06:30:29;13.20;;;5.20;;
19312;SDS011;9791;50.820;4.406;2023-07-22T06:32:55;9.85;;;4.72;;
19312;SDS011;9791;50.820;4.406;2023-07-22T06:35:21;12.05;;;5.20;;
19312;SDS011;9791;50.820;4.406;2023-07-22T06:37:47;8.25;;;4.43;;
19312;SDS011;9791;50.820;4.406;2023-07-22T06:40:13;9.30;;;4.45;;
19312;SDS011;9791;50.820;4.406;2023-07-22T06:42:39;12.23;;;4.95;;
19312;SDS011;9791;50.820;4.406;2023-07-22T06:45:05;12.48;;;5.28;;
19312;SDS011;9791;50.820;4.406;2023-07-22T06:47:31;9.77;;;4.65;;
19312;SDS011;9791;50.820;4.406;2023-07-22T06:49:57;11.77;;;5.07;;
19312;SDS011;9791;50.820;4.406;2023-07-22T06:52:24;11.30;;;5.35;;
19312;SDS011;9791;50.820;4.406;2023-07-22T06:54:50;14.52;;;5.68;;
19312;SDS011;9791;50.820;4.406;2023-07-22T06:57:16;9.15;;;4.82;;
19312;SDS011;9791;50.820;4.406;2023-07-22T06:59:42;9.70;;;4.80;;
19312;SDS011;9791;50.820;4.406;2023-07-22T07:02:08;11.68;;;5.18;;
19312;SDS011;9791;50.820;4.406;2023-07-22T07:04:34;11.32;;;5.32;;
19312;SDS011;9791;50.820;4.406;2023-07-22T07:07:00;9.68;;;4.85;;
19312;SDS011;9791;50.820;4.406;2023-07-22T07:09:27;7.65;;;5.03;;
19312;SDS011;9791;50.820;4.406;2023-07-22T07:11:53;14.48;;;4.97;;
19312;SDS011;9791;50.820;4.406;2023-07-22T07:14:22;11.38;;;4.47;;
19312;SDS011;9791;50.820;4.406;2023-07-22T07:16:48;12.50;;;4.38;;
19312;SDS011;9791;50.820;4.406;2023-07-22T07:19:14;15.07;;;4.30;;
19312;SDS011;9791;50.820;4.406;2023-07-22T07:21:40;10.40;;;4.35;;
19312;SDS011;9791;50.820;4.406;2023-07-22T07:24:07;7.53;;;3.78;;
19312;SDS011;9791;50.820;4.406;2023-07-22T07:26:33;10.27;;;4.00;;
19312;SDS011;9791;50.820;4.406;2023-07-22T07:28:59;10.32;;;4.25;;
19312;SDS011;9791;50.820;4.406;2023-07-22T07:31:25;11.73;;;4.10;;
19312;SDS011;9791;50.820;4.406;2023-07-22T07:33:52;9.23;;;4.20;;
19312;SDS011;9791;50.820;4.406;2023-07-22T07:36:18;10.52;;;4.20;;
19312;SDS011;9791;50.820;4.406;2023-07-22T07:38:44;8.45;;;3.58;;
19312;SDS011;9791;50.820;4.406;2023-07-22T07:41:10;7.40;;;3.60;;
19312;SDS011;9791;50.820;4.406;2023-07-22T07:43:38;10.98;;;4.18;;
19312;SDS011;9791;50.820;4.406;2023-07-22T07:46:17;11.60;;;3.85;;
19312;SDS011;9791;50.820;4.406;2023-07-22T07:48:46;8.25;;;3.60;;
19312;SDS011;9791;50.820;4.406;2023-07-22T07:51:12;9.32;;;3.70;;
19312;SDS011;9791;50.820;4.406;2023-07-22T07:53:39;9.38;;;3.85;;
19312;SDS011;9791;50.820;4.406;2023-07-22T07:56:06;11.57;;;4.38;;
19312;SDS011;9791;50.820;4.406;2023-07-22T07:58:32;7.68;;;3.33;;
19312;SDS011;9791;50.820;4.406;2023-07-22T08:00:58;8.95;;;3.30;;
19312;SDS011;9791;50.820;4.406;2023-07-22T08:03:24;6.57;;;2.85;;
19312;SDS011;9791;50.820;4.406;2023-07-22T08:05:50;9.68;;;3.22;;
19312;SDS011;9791;50.820;4.406;2023-07-22T08:08:16;7.63;;;3.20;;
19312;SDS011;9791;50.820;4.406;2023-07-22T08:10:43;8.48;;;3.22;;
19312;SDS011;9791;50.820;4.406;2023-07-22T08:13:09;8.82;;;3.45;;
19312;SDS011;9791;50.820;4.406;2023-07-22T08:15:35;8.77;;;3.38;;
19312;SDS011;9791;50.820;4.406;2023-07-22T08:18:02;6.95;;;2.90;;
19312;SDS011;9791;50.820;4.406;2023-07-22T08:20:29;10.18;;;3.45;;
19312;SDS011;9791;50.820;4.406;2023-07-22T08:22:55;9.20;;;3.78;;
19312;SDS011;9791;50.820;4.406;2023-07-22T08:25:21;6.57;;;3.15;;
19312;SDS011;9791;50.820;4.406;2023-07-22T08:27:47;9.10;;;3.00;;
19312;SDS011;9791;50.820;4.406;2023-07-22T08:30:14;7.78;;;2.92;;
19312;SDS011;9791;50.820;4.406;2023-07-22T08:32:40;7.20;;;2.88;;
19312;SDS011;9791;50.820;4.406;2023-07-22T08:35:06;7.80;;;3.03;;
19312;SDS011;9791;50.820;4.406;2023-07-22T08:37:33;6.55;;;2.72;;
19312;SDS011;9791;50.820;4.406;2023-07-22T08:39:59;6.47;;;2.40;;
19312;SDS011;9791;50.820;4.406;2023-07-22T08:42:25;12.23;;;4.10;;
19312;SDS011;9791;50.820;4.406;2023-07-22T08:44:56;5.43;;;2.35;;
19312;SDS011;9791;50.820;4.406;2023-07-22T08:47:22;8.95;;;3.17;;
19312;SDS011;9791;50.820;4.406;2023-07-22T08:49:51;5.45;;;2.25;;
19312;SDS011;9791;50.820;4.406;2023-07-22T08:52:18;7.65;;;2.47;;
19312;SDS011;9791;50.820;4.406;2023-07-22T08:54:44;6.63;;;2.58;;
19312;SDS011;9791;50.820;4.406;2023-07-22T08:57:13;8.43;;;2.38;;
19312;SDS011;9791;50.820;4.406;2023-07-22T08:59:41;5.75;;;2.00;;
19312;SDS011;9791;50.820;4.406;2023-07-22T09:02:08;5.18;;;1.98;;
19312;SDS011;9791;50.820;4.406;2023-07-22T09:04:36;6.32;;;2.35;;
19312;SDS011;9791;50.820;4.406;2023-07-22T09:07:02;6.88;;;2.35;;
19312;SDS011;9791;50.820;4.406;2023-07-22T09:09:28;6.68;;;2.13;;
19312;SDS011;9791;50.820;4.406;2023-07-22T09:11:54;6.40;;;2.15;;
19312;SDS011;9791;50.820;4.406;2023-07-22T09:14:21;5.57;;;1.95;;
19312;SDS011;9791;50.820;4.406;2023-07-22T09:16:47;8.07;;;1.83;;
19312;SDS011;9791;50.820;4.406;2023-07-22T09:19:13;4.90;;;1.83;;
19312;SDS011;9791;50.820;4.406;2023-07-22T09:21:39;5.60;;;1.80;;
19312;SDS011;9791;50.820;4.406;2023-07-22T09:24:19;4.93;;;1.85;;
19312;SDS011;9791;50.820;4.406;2023-07-22T09:26:46;4.18;;;1.67;;
19312;SDS011;9791;50.820;4.406;2023-07-22T09:29:12;4.43;;;1.50;;
19312;SDS011;9791;50.820;4.406;2023-07-22T09:31:48;7.72;;;1.67;;
19312;SDS011;9791;50.820;4.406;2023-07-22T09:34:15;7.55;;;1.83;;
19312;SDS011;9791;50.820;4.406;2023-07-22T09:36:54;4.82;;;1.77;;
19312;SDS011;9791;50.820;4.406;2023-07-22T09:39:20;4.82;;;1.60;;
19312;SDS011;9791;50.820;4.406;2023-07-22T09:41:47;4.28;;;1.60;;
19312;SDS011;9791;50.820;4.406;2023-07-22T09:44:13;3.65;;;1.33;;
19312;SDS011;9791;50.820;4.406;2023-07-22T09:46:39;4.90;;;1.63;;
19312;SDS011;9791;50.820;4.406;2023-07-22T09:49:06;3.30;;;1.38;;
19312;SDS011;9791;50.820;4.406;2023-07-22T09:51:33;4.03;;;1.40;;
19312;SDS011;9791;50.820;4.406;2023-07-22T09:54:00;6.22;;;1.70;;
19312;SDS011;9791;50.820;4.406;2023-07-22T09:56:26;8.15;;;1.70;;
19312;SDS011;9791;50.820;4.406;2023-07-22T09:58:54;5.65;;;1.40;;
19312;SDS011;9791;50.820;4.406;2023-07-22T10:01:22;3.90;;;1.23;;
19312;SDS011;9791;50.820;4.406;2023-07-22T10:03:50;6.88;;;1.50;;
19312;SDS011;9791;50.820;4.406;2023-07-22T10:06:20;2.25;;;0.98;;
19312;SDS011;9791;50.820;4.406;2023-07-22T10:08:46;3.22;;;1.08;;
19312;SDS011;9791;50.820;4.406;2023-07-22T10:11:13;3.80;;;1.30;;
19312;SDS011;9791;50.820;4.406;2023-07-22T10:13:40;3.10;;;1.15;;
19312;SDS011;9791;50.820;4.406;2023-07-22T10:16:06;3.97;;;1.63;;
19312;SDS011;9791;50.820;4.406;2023-07-22T10:18:32;2.88;;;1.10;;
19312;SDS011;9791;50.820;4.406;2023-07-22T10:21:00;5.80;;;1.08;;
19312;SDS011;9791;50.820;4.406;2023-07-22T10:23:26;3.85;;;1.30;;
19312;SDS011;9791;50.820;4.406;2023-07-22T10:25:53;2.33;;;1.30;;
19312;SDS011;9791;50.820;4.406;2023-07-22T10:28:22;2.45;;;1.13;;
19312;SDS011;9791;50.820;4.406;2023-07-22T10:30:48;2.25;;;1.10;;
19312;SDS011;9791;50.820;4.406;2023-07-22T10:33:14;2.03;;;0.88;;
19312;SDS011;9791;50.820;4.406;2023-07-22T10:35:42;2.85;;;1.17;;
19312;SDS011;9791;50.820;4.406;2023-07-22T10:38:15;3.30;;;1.10;;
19312;SDS011;9791;50.820;4.406;2023-07-22T10:43:10;2.88;;;1.33;;
19312;SDS011;9791;50.820;4.406;2023-07-22T10:45:40;2.88;;;1.27;;
19312;SDS011;9791;50.820;4.406;2023-07-22T10:48:07;4.35;;;1.27;;
19312;SDS011;9791;50.820;4.406;2023-07-22T10:50:53;4.28;;;1.25;;
19312;SDS011;9791;50.820;4.406;2023-07-22T10:53:20;4.60;;;1.27;;
19312;SDS011;9791;50.820;4.406;2023-07-22T10:58:31;4.30;;;1.20;;
19312;SDS011;9791;50.820;4.406;2023-07-22T11:04:08;3.35;;;1.20;;
19312;SDS011;9791;50.820;4.406;2023-07-22T11:12:14;4.15;;;1.30;;
19312;SDS011;9791;50.820;4.406;2023-07-22T11:17:12;4.97;;;1.80;;
19312;SDS011;9791;50.820;4.406;2023-07-22T11:19:39;4.32;;;1.40;;
19312;SDS011;9791;50.820;4.406;2023-07-22T11:22:05;3.88;;;1.50;;
19312;SDS011;9791;50.820;4.406;2023-07-22T11:27:05;4.32;;;1.48;;
19312;SDS011;9791;50.820;4.406;2023-07-22T11:29:32;3.55;;;1.25;;
19312;SDS011;9791;50.820;4.406;2023-07-22T11:31:58;3.80;;;1.45;;
19312;SDS011;9791;50.820;4.406;2023-07-22T11:34:24;4.63;;;1.48;;
19312;SDS011;9791;50.820;4.406;2023-07-22T11:36:51;4.72;;;1.52;;
19312;SDS011;9791;50.820;4.406;2023-07-22T11:39:18;3.53;;;1.40;;
19312;SDS011;9791;50.820;4.406;2023-07-22T11:41:45;5.47;;;1.70;;
19312;SDS011;9791;50.820;4.406;2023-07-22T11:44:12;3.72;;;1.50;;
19312;SDS011;9791;50.820;4.406;2023-07-22T11:47:13;5.20;;;1.45;;
19312;SDS011;9791;50.820;4.406;2023-07-22T11:49:38;3.65;;;1.40;;
19312;SDS011;9791;50.820;4.406;2023-07-22T11:52:11;5.05;;;1.52;;
19312;SDS011;9791;50.820;4.406;2023-07-22T11:54:42;3.30;;;1.38;;
19312;SDS011;9791;50.820;4.406;2023-07-22T11:57:10;4.22;;;1.40;;
19312;SDS011;9791;50.820;4.406;2023-07-22T11:59:37;3.97;;;1.50;;
19312;SDS011;9791;50.820;4.406;2023-07-22T12:02:03;5.35;;;1.70;;
19312;SDS011;9791;50.820;4.406;2023-07-22T12:04:33;5.97;;;1.63;;
19312;SDS011;9791;50.820;4.406;2023-07-22T12:06:59;4.32;;;1.40;;
19312;SDS011;9791;50.820;4.406;2023-07-22T12:09:25;4.78;;;1.50;;
19312;SDS011;9791;50.820;4.406;2023-07-22T12:11:55;3.13;;;1.40;;
19312;SDS011;9791;50.820;4.406;2023-07-22T12:14:22;6.32;;;2.17;;
19312;SDS011;9791;50.820;4.406;2023-07-22T12:16:52;5.20;;;1.80;;
19312;SDS011;9791;50.820;4.406;2023-07-22T12:19:18;4.05;;;1.60;;
19312;SDS011;9791;50.820;4.406;2023-07-22T12:21:44;4.57;;;1.70;;
19312;SDS011;9791;50.820;4.406;2023-07-22T12:24:13;4.80;;;1.60;;
19312;SDS011;9791;50.820;4.406;2023-07-22T12:26:39;4.55;;;1.27;;
19312;SDS011;9791;50.820;4.406;2023-07-22T12:29:05;3.35;;;1.65;;
19312;SDS011;9791;50.820;4.406;2023-07-22T12:31:31;8.63;;;1.60;;
19312;SDS011;9791;50.820;4.406;2023-07-22T12:33:57;6.38;;;1.42;;
19312;SDS011;9791;50.820;4.406;2023-07-22T12:36:23;10.10;;;1.98;;
19312;SDS011;9791;50.820;4.406;2023-07-22T12:38:51;4.68;;;1.60;;
19312;SDS011;9791;50.820;4.406;2023-07-22T12:41:17;5.40;;;1.50;;
19312;SDS011;9791;50.820;4.406;2023-07-22T12:43:44;4.47;;;1.30;;
19312;SDS011;9791;50.820;4.406;2023-07-22T12:46:10;7.03;;;1.55;;
19312;SDS011;9791;50.820;4.406;2023-07-22T12:48:36;4.38;;;1.50;;
19312;SDS011;9791;50.820;4.406;2023-07-22T12:51:02;4.57;;;1.35;;
19312;SDS011;9791;50.820;4.406;2023-07-22T12:53:28;2.63;;;1.23;;
19312;SDS011;9791;50.820;4.406;2023-07-22T12:55:54;3.78;;;1.40;;
19312;SDS011;9791;50.820;4.406;2023-07-22T12:58:20;2.67;;;1.38;;
19312;SDS011;9791;50.820;4.406;2023-07-22T13:00:47;3.78;;;1.50;;
19312;SDS011;9791;50.820;4.406;2023-07-22T13:03:13;4.20;;;1.50;;
19312;SDS011;9791;50.820;4.406;2023-07-22T13:05:39;5.97;;;1.55;;
19312;SDS011;9791;50.820;4.406;2023-07-22T13:08:06;4.85;;;1.42;;
19312;SDS011;9791;50.820;4.406;2023-07-22T13:10:32;6.72;;;1.75;;
19312;SDS011;9791;50.820;4.406;2023-07-22T13:13:02;3.00;;;1.30;;
19312;SDS011;9791;50.820;4.406;2023-07-22T13:15:28;4.40;;;1.45;;
19312;SDS011;9791;50.820;4.406;2023-07-22T13:17:54;3.47;;;1.40;;
19312;SDS011;9791;50.820;4.406;2023-07-22T13:20:20;4.45;;;1.50;;
19312;SDS011;9791;50.820;4.406;2023-07-22T13:22:46;3.08;;;1.40;;
19312;SDS011;9791;50.820;4.406;2023-07-22T13:25:12;5.03;;;1.65;;
19312;SDS011;9791;50.820;4.406;2023-07-22T13:27:38;5.00;;;1.50;;
19312;SDS011;9791;50.820;4.406;2023-07-22T13:30:06;3.35;;;1.58;;
19312;SDS011;9791;50.820;4.406;2023-07-22T13:32:32;4.57;;;1.70;;
19312;SDS011;9791;50.820;4.406;2023-07-22T13:34:58;5.40;;;1.58;;
19312;SDS011;9791;50.820;4.406;2023-07-22T13:37:24;3.72;;;1.60;;
19312;SDS011;9791;50.820;4.406;2023-07-22T13:39:50;4.30;;;1.58;;
19312;SDS011;9791;50.820;4.406;2023-07-22T13:42:18;4.25;;;1.42;;
19312;SDS011;9791;50.820;4.406;2023-07-22T13:44:44;5.28;;;1.65;;
19312;SDS011;9791;50.820;4.406;2023-07-22T13:47:10;7.18;;;1.85;;
19312;SDS011;9791;50.820;4.406;2023-07-22T13:49:36;5.78;;;1.88;;
19312;SDS011;9791;50.820;4.406;2023-07-22T13:52:03;6.10;;;1.75;;
19312;SDS011;9791;50.820;4.406;2023-07-22T13:54:30;4.45;;;1.55;;
19312;SDS011;9791;50.820;4.406;2023-07-22T13:56:56;6.88;;;1.70;;
19312;SDS011;9791;50.820;4.406;2023-07-22T13:59:22;7.50;;;1.42;;
19312;SDS011;9791;50.820;4.406;2023-07-22T14:01:48;5.13;;;1.85;;
19312;SDS011;9791;50.820;4.406;2023-07-22T14:04:14;5.65;;;1.58;;
19312;SDS011;9791;50.820;4.406;2023-07-22T14:06:40;7.85;;;2.00;;
19312;SDS011;9791;50.820;4.406;2023-07-22T14:09:06;4.70;;;1.70;;
19312;SDS011;9791;50.820;4.406;2023-07-22T14:11:32;4.50;;;1.52;;
19312;SDS011;9791;50.820;4.406;2023-07-22T14:13:58;4.00;;;1.70;;
19312;SDS011;9791;50.820;4.406;2023-07-22T14:16:24;3.75;;;1.85;;
19312;SDS011;9791;50.820;4.406;2023-07-22T14:18:50;5.53;;;1.70;;
19312;SDS011;9791;50.820;4.406;2023-07-22T14:21:17;6.15;;;1.50;;
19312;SDS011;9791;50.820;4.406;2023-07-22T14:23:43;3.75;;;1.80;;
19312;SDS011;9791;50.820;4.406;2023-07-22T14:26:09;4.45;;;1.65;;
19312;SDS011;9791;50.820;4.406;2023-07-22T14:28:36;3.83;;;1.58;;
19312;SDS011;9791;50.820;4.406;2023-07-22T14:31:02;4.13;;;1.40;;
19312;SDS011;9791;50.820;4.406;2023-07-22T14:33:29;3.15;;;1.33;;
19312;SDS011;9791;50.820;4.406;2023-07-22T14:35:55;5.50;;;1.90;;
19312;SDS011;9791;50.820;4.406;2023-07-22T14:38:21;3.17;;;1.52;;
19312;SDS011;9791;50.820;4.406;2023-07-22T14:40:47;4.50;;;1.50;;
19312;SDS011;9791;50.820;4.406;2023-07-22T14:43:13;3.60;;;1.60;;
19312;SDS011;9791;50.820;4.406;2023-07-22T14:45:39;5.63;;;1.60;;
19312;SDS011;9791;50.820;4.406;2023-07-22T14:48:05;4.38;;;1.73;;
19312;SDS011;9791;50.820;4.406;2023-07-22T14:50:31;5.82;;;1.60;;
19312;SDS011;9791;50.820;4.406;2023-07-22T14:52:57;3.45;;;1.30;;
19312;SDS011;9791;50.820;4.406;2023-07-22T14:55:24;5.40;;;1.48;;
19312;SDS011;9791;50.820;4.406;2023-07-22T14:57:50;5.13;;;1.77;;
19312;SDS011;9791;50.820;4.406;2023-07-22T15:00:16;5.05;;;1.92;;
19312;SDS011;9791;50.820;4.406;2023-07-22T15:02:43;3.72;;;1.60;;
19312;SDS011;9791;50.820;4.406;2023-07-22T15:05:09;4.07;;;1.48;;
19312;SDS011;9791;50.820;4.406;2023-07-22T15:07:35;3.70;;;1.23;;
19312;SDS011;9791;50.820;4.406;2023-07-22T15:10:01;3.08;;;1.45;;
19312;SDS011;9791;50.820;4.406;2023-07-22T15:12:28;11.07;;;2.05;;
19312;SDS011;9791;50.820;4.406;2023-07-22T15:14:54;5.43;;;1.77;;